sensor_id;sensor_type;location;lat;lon;timestamp;P1;durP1;ratioP1;P2;durP2;ratioP2
63953;SDS011;50128;52.094;5.232;2023-03-01T00:01:09;13.4;;;12.0;;
63953;SDS011;50128;52.094;5.232;2023-03-01T00:04:25;13.2;;;11.7;;
63953;SDS011;50128;52.094;5.232;2023-03-01T00:06:03;14.3;;;12.5;;
63953;SDS011;50128;52.094;5.232;2023-03-01T00:07:40;14.9;;;12.3;;
63953;SDS011;50128;52.094;5.232;2023-03-01T00:09:16;13.7;;;12.3;;
63953;SDS011;50128;52.094;5.232;2023-03-01T00:12:39;14.1;;;11.6;;
63953;SDS011;50128;52.094;5.232;2023-03-01T00:14:15;13.7;;;12.2;;
63953;SDS011;50128;52.094;5.232;2023-03-01T00:15:51;13.6;;;11.5;;
63953;SDS011;50128;52.094;5.232;2023-03-01T00:19:04;14.7;;;13.1;;
63953;SDS011;50128;52.094;5.232;2023-03-01T00:20:41;14.5;;;13.0;;
63953;SDS011;50128;52.094;5.232;2023-03-01T00:22:17;13.2;;;11.8;;
63953;SDS011;50128;52.094;5.232;2023-03-01T00:23:53;13.4;;;11.4;;
63953;SDS011;50128;52.094;5.232;2023-03-01T00:27:07;13.7;;;12.2;;
63953;SDS011;50128;52.094;5.232;2023-03-01T00:28:43;13.8;;;11.5;;
63953;SDS011;50128;52.094;5.232;2023-03-01T00:30:20;12.9;;;11.6;;
63953;SDS011;50128;52.094;5.232;2023-03-01T00:33:32;14.0;;;12.1;;
63953;SDS011;50128;52.094;5.232;2023-03-01T00:35:09;13.6;;;12.1;;
63953;SDS011;50128;52.094;5.232;2023-03-01T00:36:45;13.3;;;11.9;;
63953;SDS011;50128;52.094;5.232;2023-03-01T00:39:58;14.2;;;12.4;;
63953;SDS011;50128;52.094;5.232;2023-03-01T00:41:34;13.1;;;11.7;;
63953;SDS011;50128;52.094;5.232;2023-03-01T00:43:10;14.5;;;12.6;;
63953;SDS011;50128;52.094;5.232;2023-03-01T00:44:46;14.3;;;12.5;;
63953;SDS011;50128;52.094;5.232;2023-03-01T00:48:02;15.6;;;12.5;;
63953;SDS011;50128;52.094;5.232;2023-03-01T00:49:38;14.5;;;12.4;;
63953;SDS011;50128;52.094;5.232;2023-03-01T00:51:14;14.0;;;12.5;;
63953;SDS011;50128;52.094;5.232;2023-03-01T00:54:30;14.8;;;13.2;;
63953;SDS011;50128;52.094;5.232;2023-03-01T00:56:08;16.3;;;14.1;;
63953;SDS011;50128;52.094;5.232;2023-03-01T00:57:45;14.4;;;12.9;;
63953;SDS011;50128;52.094;5.232;2023-03-01T01:00:58;14.3;;;12.8;;
63953;SDS011;50128;52.094;5.232;2023-03-01T01:02:34;15.8;;;13.8;;
63953;SDS011;50128;52.094;5.232;2023-03-01T01:04:12;15.5;;;13.2;;
63953;SDS011;50128;52.094;5.232;2023-03-01T01:05:49;15.6;;;13.4;;
63953;SDS011;50128;52.094;5.232;2023-03-01T01:09:01;15.3;;;13.7;;
63953;SDS011;50128;52.094;5.232;2023-03-01T01:10:42;14.0;;;12.5;;
63953;SDS011;50128;52.094;5.232;2023-03-01T01:12:19;16.4;;;14.1;;
63953;SDS011;50128;52.094;5.232;2023-03-01T01:15:33;17.5;;;14.3;;
63953;SDS011;50128;52.094;5.232;2023-03-01T01:17:10;16.3;;;14.5;;
63953;SDS011;50128;52.094;5.232;2023-03-01T01:18:46;15.3;;;13.7;;
63953;SDS011;50128;52.094;5.232;2023-03-01T01:20:22;16.2;;;13.7;;
63953;SDS011;50128;52.094;5.232;2023-03-01T01:23:35;15.4;;;13.8;;
63953;SDS011;50128;52.094;5.232;2023-03-01T01:25:11;15.4;;;13.8;;
63953;SDS011;50128;52.094;5.232;2023-03-01T01:26:48;18.11;;;14.5;;
63953;SDS011;50128;52.094;5.232;2023-03-01T01:30:01;16.7;;;14.6;;
63953;SDS011;50128;52.094;5.232;2023-03-01T01:31:39;16.3;;;14.6;;
63953;SDS011;50128;52.094;5.232;2023-03-01T01:33:17;17.0;;;15.2;;
63953;SDS011;50128;52.094;5.232;2023-03-01T01:36:31;17.5;;;15.0;;
63953;SDS011;50128;52.094;5.232;2023-03-01T01:38:09;17.11;;;15.4;;
63953;SDS011;50128;52.094;5.232;2023-03-01T01:39:45;18.5;;;16.5;;
63953;SDS011;50128;52.094;5.232;2023-03-01T01:41:21;19.2;;;17.2;;
63953;SDS011;50128;52.094;5.232;2023-03-01T01:44:35;17.2;;;15.4;;
63953;SDS011;50128;52.094;5.232;2023-03-01T01:46:15;18.2;;;15.8;;
63953;SDS011;50128;52.094;5.232;2023-03-01T01:47:57;18.2;;;16.3;;
63953;SDS011;50128;52.094;5.232;2023-03-01T01:49:40;17.8;;;15.9;;
63953;SDS011;50128;52.094;5.232;2023-03-01T01:53:01;18.7;;;16.61;;
63953;SDS011;50128;52.094;5.232;2023-03-01T01:54:39;17.7;;;15.8;;
63953;SDS011;50128;52.094;5.232;2023-03-01T01:56:21;18.3;;;16.2;;
63953;SDS011;50128;52.094;5.232;2023-03-01T01:58:01;17.3;;;15.5;;
63953;SDS011;50128;52.094;5.232;2023-03-01T02:01:25;17.11;;;15.3;;
63953;SDS011;50128;52.094;5.232;2023-03-01T02:03:03;18.5;;;15.5;;
63953;SDS011;50128;52.094;5.232;2023-03-01T02:04:44;21.3;;;17.7;;
63953;SDS011;50128;52.094;5.232;2023-03-01T02:06:25;17.5;;;15.8;;
63953;SDS011;50128;52.094;5.232;2023-03-01T02:09:45;17.41;;;15.6;;
63953;SDS011;50128;52.094;5.232;2023-03-01T02:11:24;17.61;;;15.7;;
63953;SDS011;50128;52.094;5.232;2023-03-01T02:13:03;16.61;;;14.9;;
63953;SDS011;50128;52.094;5.232;2023-03-01T02:16:16;17.7;;;15.0;;
63953;SDS011;50128;52.094;5.232;2023-03-01T02:17:53;16.7;;;14.9;;
63953;SDS011;50128;52.094;5.232;2023-03-01T02:19:35;18.3;;;16.3;;
63953;SDS011;50128;52.094;5.232;2023-03-01T02:21:37;17.5;;;15.7;;
63953;SDS011;50128;52.094;5.232;2023-03-01T02:23:25;17.7;;;15.9;;
63953;SDS011;50128;52.094;5.232;2023-03-01T02:26:51;17.3;;;15.5;;
63953;SDS011;50128;52.094;5.232;2023-03-01T02:28:31;19.11;;;17.11;;
63953;SDS011;50128;52.094;5.232;2023-03-01T02:30:10;18.2;;;16.3;;
63953;SDS011;50128;52.094;5.232;2023-03-01T02:31:46;17.8;;;16.0;;
63953;SDS011;50128;52.094;5.232;2023-03-01T02:35:01;16.8;;;15.0;;
63953;SDS011;50128;52.094;5.232;2023-03-01T02:36:38;18.11;;;16.2;;
63953;SDS011;50128;52.094;5.232;2023-03-01T02:38:18;16.11;;;14.5;;
63953;SDS011;50128;52.094;5.232;2023-03-01T02:39:56;17.5;;;15.6;;
63953;SDS011;50128;52.094;5.232;2023-03-01T02:43:17;17.91;;;16.0;;
63953;SDS011;50128;52.094;5.232;2023-03-01T02:44:57;16.9;;;15.1;;
63953;SDS011;50128;52.094;5.232;2023-03-01T02:46:34;17.7;;;15.8;;
63953;SDS011;50128;52.094;5.232;2023-03-01T02:48:18;18.41;;;16.4;;
63953;SDS011;50128;52.094;5.232;2023-03-01T02:51:34;18.5;;;16.11;;
63953;SDS011;50128;52.094;5.232;2023-03-01T02:53:25;17.0;;;15.2;;
63953;SDS011;50128;52.094;5.232;2023-03-01T02:55:10;18.11;;;15.6;;
63953;SDS011;50128;52.094;5.232;2023-03-01T02:56:49;17.11;;;15.3;;
63953;SDS011;50128;52.094;5.232;2023-03-01T03:00:04;17.61;;;15.8;;
63953;SDS011;50128;52.094;5.232;2023-03-01T03:01:44;20.5;;;17.3;;
63953;SDS011;50128;52.094;5.232;2023-03-01T03:03:20;17.7;;;15.9;;
63953;SDS011;50128;52.094;5.232;2023-03-01T03:04:57;18.61;;;16.61;;
63953;SDS011;50128;52.094;5.232;2023-03-01T03:08:10;17.41;;;15.5;;
63953;SDS011;50128;52.094;5.232;2023-03-01T03:09:46;17.41;;;15.6;;
63953;SDS011;50128;52.094;5.232;2023-03-01T03:11:22;17.8;;;15.9;;
63953;SDS011;50128;52.094;5.232;2023-03-01T03:14:37;17.2;;;15.5;;
63953;SDS011;50128;52.094;5.232;2023-03-01T03:16:13;17.41;;;15.4;;
63953;SDS011;50128;52.094;5.232;2023-03-01T03:17:50;18.7;;;16.5;;
63953;SDS011;50128;52.094;5.232;2023-03-01T03:21:06;17.8;;;16.0;;
63953;SDS011;50128;52.094;5.232;2023-03-01T03:22:43;18.41;;;16.61;;
63953;SDS011;50128;52.094;5.232;2023-03-01T03:24:19;19.41;;;17.41;;
63953;SDS011;50128;52.094;5.232;2023-03-01T03:25:55;18.91;;;16.9;;
63953;SDS011;50128;52.094;5.232;2023-03-01T03:29:08;17.3;;;15.5;;
63953;SDS011;50128;52.094;5.232;2023-03-01T03:30:44;18.8;;;16.8;;
63953;SDS011;50128;52.094;5.232;2023-03-01T03:32:20;18.91;;;16.3;;
63953;SDS011;50128;52.094;5.232;2023-03-01T03:35:33;19.3;;;17.41;;
63953;SDS011;50128;52.094;5.232;2023-03-01T03:37:15;18.2;;;16.4;;
63953;SDS011;50128;52.094;5.232;2023-03-01T03:38:51;20.5;;;18.3;;
63953;SDS011;50128;52.094;5.232;2023-03-01T03:42:08;17.91;;;16.11;;
63953;SDS011;50128;52.094;5.232;2023-03-01T03:43:44;19.3;;;17.11;;
63953;SDS011;50128;52.094;5.232;2023-03-01T03:45:20;18.2;;;16.2;;
63953;SDS011;50128;52.094;5.232;2023-03-01T03:46:56;18.61;;;16.61;;
63953;SDS011;50128;52.094;5.232;2023-03-01T03:50:10;17.8;;;15.9;;
63953;SDS011;50128;52.094;5.232;2023-03-01T03:51:47;17.41;;;15.6;;
63953;SDS011;50128;52.094;5.232;2023-03-01T03:53:24;18.61;;;16.7;;
63953;SDS011;50128;52.094;5.232;2023-03-01T03:56:40;18.41;;;16.4;;
63953;SDS011;50128;52.094;5.232;2023-03-01T03:58:16;19.41;;;17.3;;
63953;SDS011;50128;52.094;5.232;2023-03-01T03:59:54;18.41;;;16.4;;
63953;SDS011;50128;52.094;5.232;2023-03-01T04:01:30;19.61;;;16.4;;
63953;SDS011;50128;52.094;5.232;2023-03-01T04:04:45;19.2;;;17.2;;
63953;SDS011;50128;52.094;5.232;2023-03-01T04:06:21;18.8;;;16.9;;
63953;SDS011;50128;52.094;5.232;2023-03-01T04:07:58;19.8;;;17.7;;
63953;SDS011;50128;52.094;5.232;2023-03-01T04:11:11;19.0;;;17.0;;
63953;SDS011;50128;52.094;5.232;2023-03-01T04:12:48;19.41;;;17.3;;
63953;SDS011;50128;52.094;5.232;2023-03-01T04:14:24;18.61;;;16.7;;
63953;SDS011;50128;52.094;5.232;2023-03-01T04:17:37;18.8;;;16.8;;
63953;SDS011;50128;52.094;5.232;2023-03-01T04:19:13;20.5;;;18.41;;
63953;SDS011;50128;52.094;5.232;2023-03-01T04:20:49;20.2;;;18.11;;
63953;SDS011;50128;52.094;5.232;2023-03-01T04:22:26;19.91;;;17.8;;
63953;SDS011;50128;52.094;5.232;2023-03-01T04:25:40;19.2;;;17.3;;
63953;SDS011;50128;52.094;5.232;2023-03-01T04:27:17;19.41;;;17.41;;
63953;SDS011;50128;52.094;5.232;2023-03-01T04:28:54;18.91;;;16.9;;
63953;SDS011;50128;52.094;5.232;2023-03-01T04:32:06;19.61;;;17.41;;
63953;SDS011;50128;52.094;5.232;2023-03-01T04:33:42;19.11;;;17.2;;
63953;SDS011;50128;52.094;5.232;2023-03-01T04:35:20;19.8;;;17.8;;
63953;SDS011;50128;52.094;5.232;2023-03-01T04:38:32;17.61;;;15.7;;
63953;SDS011;50128;52.094;5.232;2023-03-01T04:40:09;19.5;;;17.61;;
63953;SDS011;50128;52.094;5.232;2023-03-01T04:41:46;19.11;;;17.0;;
63953;SDS011;50128;52.094;5.232;2023-03-01T04:43:23;19.11;;;16.8;;
63953;SDS011;50128;52.094;5.232;2023-03-01T04:46:35;18.5;;;16.61;;
63953;SDS011;50128;52.094;5.232;2023-03-01T04:48:12;18.2;;;16.4;;
63953;SDS011;50128;52.094;5.232;2023-03-01T04:49:48;19.5;;;17.5;;
63953;SDS011;50128;52.094;5.232;2023-03-01T04:53:01;19.2;;;17.2;;
63953;SDS011;50128;52.094;5.232;2023-03-01T04:54:38;19.2;;;17.2;;
63953;SDS011;50128;52.094;5.232;2023-03-01T04:56:14;18.41;;;16.5;;
63953;SDS011;50128;52.094;5.232;2023-03-01T04:59:28;18.91;;;16.9;;
63953;SDS011;50128;52.094;5.232;2023-03-01T05:01:08;18.61;;;16.61;;
63953;SDS011;50128;52.094;5.232;2023-03-01T05:02:46;17.7;;;15.9;;
63953;SDS011;50128;52.094;5.232;2023-03-01T05:04:24;18.2;;;16.3;;
63953;SDS011;50128;52.094;5.232;2023-03-01T05:07:36;19.2;;;16.9;;
63953;SDS011;50128;52.094;5.232;2023-03-01T05:09:12;18.5;;;16.5;;
63953;SDS011;50128;52.094;5.232;2023-03-01T05:10:49;18.61;;;16.61;;
63953;SDS011;50128;52.094;5.232;2023-03-01T05:15:42;18.5;;;16.5;;
63953;SDS011;50128;52.094;5.232;2023-03-01T05:17:18;19.3;;;16.61;;
63953;SDS011;50128;52.094;5.232;2023-03-01T05:18:54;18.5;;;16.7;;
63953;SDS011;50128;52.094;5.232;2023-03-01T05:22:06;17.91;;;16.0;;
63953;SDS011;50128;52.094;5.232;2023-03-01T05:23:43;18.3;;;16.4;;
63953;SDS011;50128;52.094;5.232;2023-03-01T05:25:20;19.2;;;17.2;;
63953;SDS011;50128;52.094;5.232;2023-03-01T05:28:34;18.8;;;17.0;;
63953;SDS011;50128;52.094;5.232;2023-03-01T05:30:11;19.5;;;17.5;;
63953;SDS011;50128;52.094;5.232;2023-03-01T05:31:48;18.61;;;16.7;;
63953;SDS011;50128;52.094;5.232;2023-03-01T05:35:03;19.2;;;17.2;;
63953;SDS011;50128;52.094;5.232;2023-03-01T05:36:40;19.91;;;17.7;;
63953;SDS011;50128;52.094;5.232;2023-03-01T05:38:16;18.11;;;16.2;;
63953;SDS011;50128;52.094;5.232;2023-03-01T05:39:52;19.91;;;17.0;;
63953;SDS011;50128;52.094;5.232;2023-03-01T05:43:04;18.41;;;16.4;;
63953;SDS011;50128;52.094;5.232;2023-03-01T05:44:41;19.61;;;17.5;;
63953;SDS011;50128;52.094;5.232;2023-03-01T05:46:18;18.61;;;16.61;;
63953;SDS011;50128;52.094;5.232;2023-03-01T05:49:31;18.41;;;16.5;;
63953;SDS011;50128;52.094;5.232;2023-03-01T05:51:07;19.0;;;17.11;;
63953;SDS011;50128;52.094;5.232;2023-03-01T05:52:43;19.91;;;17.91;;
63953;SDS011;50128;52.094;5.232;2023-03-01T05:55:58;20.11;;;18.11;;
63953;SDS011;50128;52.094;5.232;2023-03-01T05:57:35;19.0;;;17.0;;
63953;SDS011;50128;52.094;5.232;2023-03-01T05:59:11;19.0;;;17.11;;
63953;SDS011;50128;52.094;5.232;2023-03-01T06:00:47;20.3;;;18.2;;
63953;SDS011;50128;52.094;5.232;2023-03-01T06:04:00;20.5;;;18.41;;
63953;SDS011;50128;52.094;5.232;2023-03-01T06:05:37;20.2;;;18.11;;
63953;SDS011;50128;52.094;5.232;2023-03-01T06:07:14;19.5;;;17.5;;
63953;SDS011;50128;52.094;5.232;2023-03-01T06:10:28;20.11;;;18.0;;
63953;SDS011;50128;52.094;5.232;2023-03-01T06:12:05;19.11;;;17.11;;
63953;SDS011;50128;52.094;5.232;2023-03-01T06:15:19;19.0;;;17.11;;
63953;SDS011;50128;52.094;5.232;2023-03-01T06:18:33;20.6;;;18.5;;
63953;SDS011;50128;52.094;5.232;2023-03-01T06:20:12;21.3;;;19.11;;
63953;SDS011;50128;52.094;5.232;2023-03-01T06:21:50;20.8;;;18.61;;
63953;SDS011;50128;52.094;5.232;2023-03-01T06:25:02;20.9;;;18.2;;
63953;SDS011;50128;52.094;5.232;2023-03-01T06:26:40;21.5;;;19.2;;
63953;SDS011;50128;52.094;5.232;2023-03-01T06:28:16;22.6;;;20.11;;
63953;SDS011;50128;52.094;5.232;2023-03-01T06:31:29;21.1;;;18.8;;
63953;SDS011;50128;52.094;5.232;2023-03-01T06:33:05;23.7;;;21.2;;
63953;SDS011;50128;52.094;5.232;2023-03-01T06:34:41;23.5;;;20.7;;
63953;SDS011;50128;52.094;5.232;2023-03-01T06:36:17;20.9;;;18.7;;
63953;SDS011;50128;52.094;5.232;2023-03-01T06:39:29;21.2;;;18.91;;
63953;SDS011;50128;52.094;5.232;2023-03-01T06:41:06;21.7;;;19.41;;
63953;SDS011;50128;52.094;5.232;2023-03-01T06:42:46;20.5;;;18.41;;
63953;SDS011;50128;52.094;5.232;2023-03-01T06:46:03;23.3;;;20.8;;
63953;SDS011;50128;52.094;5.232;2023-03-01T06:47:40;20.41;;;18.3;;
63953;SDS011;50128;52.094;5.232;2023-03-01T06:49:16;22.3;;;20.0;;
63953;SDS011;50128;52.094;5.232;2023-03-01T06:50:53;22.8;;;20.41;;
63953;SDS011;50128;52.094;5.232;2023-03-01T06:54:07;21.9;;;19.61;;
63953;SDS011;50128;52.094;5.232;2023-03-01T06:55:43;21.9;;;19.61;;
63953;SDS011;50128;52.094;5.232;2023-03-01T06:57:19;21.3;;;19.11;;
63953;SDS011;50128;52.094;5.232;2023-03-01T07:00:31;21.5;;;19.2;;
63953;SDS011;50128;52.094;5.232;2023-03-01T07:02:09;22.6;;;20.3;;
63953;SDS011;50128;52.094;5.232;2023-03-01T07:03:46;22.8;;;20.5;;
63953;SDS011;50128;52.094;5.232;2023-03-01T07:06:59;23.7;;;20.9;;
63953;SDS011;50128;52.094;5.232;2023-03-01T07:08:35;23.6;;;21.1;;
63953;SDS011;50128;52.094;5.232;2023-03-01T07:10:11;23.6;;;21.1;;
63953;SDS011;50128;52.094;5.232;2023-03-01T07:11:49;23.7;;;21.2;;
63953;SDS011;50128;52.094;5.232;2023-03-01T07:15:02;26.4;;;23.6;;
63953;SDS011;50128;52.094;5.232;2023-03-01T07:16:40;24.3;;;21.8;;
63953;SDS011;50128;52.094;5.232;2023-03-01T07:18:16;26.5;;;22.4;;
63953;SDS011;50128;52.094;5.232;2023-03-01T07:21:29;26.5;;;22.4;;
63953;SDS011;50128;52.094;5.232;2023-03-01T07:23:06;25.5;;;22.8;;
63953;SDS011;50128;52.094;5.232;2023-03-01T07:24:43;25.0;;;22.5;;
63953;SDS011;50128;52.094;5.232;2023-03-01T07:27:55;25.5;;;22.8;;
63953;SDS011;50128;52.094;5.232;2023-03-01T07:29:31;24.2;;;21.7;;
63953;SDS011;50128;52.094;5.232;2023-03-01T07:31:07;24.5;;;21.9;;
63953;SDS011;50128;52.094;5.232;2023-03-01T07:32:43;24.0;;;21.5;;
63953;SDS011;50128;52.094;5.232;2023-03-01T07:35:56;25.6;;;22.9;;
63953;SDS011;50128;52.094;5.232;2023-03-01T07:37:33;26.2;;;23.5;;
63953;SDS011;50128;52.094;5.232;2023-03-01T07:39:09;25.0;;;22.3;;
63953;SDS011;50128;52.094;5.232;2023-03-01T07:42:22;24.2;;;21.5;;
63953;SDS011;50128;52.094;5.232;2023-03-01T07:43:58;25.3;;;22.4;;
63953;SDS011;50128;52.094;5.232;2023-03-01T07:45:35;24.1;;;21.6;;
63953;SDS011;50128;52.094;5.232;2023-03-01T07:48:47;25.3;;;21.7;;
63953;SDS011;50128;52.094;5.232;2023-03-01T07:50:23;25.4;;;22.7;;
63953;SDS011;50128;52.094;5.232;2023-03-01T07:51:59;26.7;;;23.9;;
63953;SDS011;50128;52.094;5.232;2023-03-01T07:55:13;27.0;;;24.2;;
63953;SDS011;50128;52.094;5.232;2023-03-01T07:56:50;27.1;;;24.3;;
63953;SDS011;50128;52.094;5.232;2023-03-01T07:58:26;27.6;;;24.1;;
63953;SDS011;50128;52.094;5.232;2023-03-01T08:00:03;26.0;;;23.3;;
63953;SDS011;50128;52.094;5.232;2023-03-01T08:03:16;28.6;;;23.9;;
63953;SDS011;50128;52.094;5.232;2023-03-01T08:04:53;34.21;;;27.2;;
63953;SDS011;50128;52.094;5.232;2023-03-01T08:06:29;27.6;;;24.2;;
63953;SDS011;50128;52.094;5.232;2023-03-01T08:09:41;22.5;;;20.11;;
63953;SDS011;50128;52.094;5.232;2023-03-01T08:11:18;24.4;;;21.8;;
63953;SDS011;50128;52.094;5.232;2023-03-01T08:12:54;23.5;;;21.0;;
63953;SDS011;50128;52.094;5.232;2023-03-01T08:16:07;22.3;;;19.91;;
63953;SDS011;50128;52.094;5.232;2023-03-01T08:17:45;22.5;;;20.2;;
63953;SDS011;50128;52.094;5.232;2023-03-01T08:19:25;21.4;;;19.11;;
63953;SDS011;50128;52.094;5.232;2023-03-01T08:21:02;21.1;;;18.8;;
63953;SDS011;50128;52.094;5.232;2023-03-01T08:24:16;20.5;;;18.3;;
63953;SDS011;50128;52.094;5.232;2023-03-01T08:25:52;20.6;;;18.41;;
63953;SDS011;50128;52.094;5.232;2023-03-01T08:27:28;20.11;;;17.91;;
63953;SDS011;50128;52.094;5.232;2023-03-01T08:30:40;21.4;;;19.11;;
63953;SDS011;50128;52.094;5.232;2023-03-01T08:32:17;19.91;;;17.5;;
63953;SDS011;50128;52.094;5.232;2023-03-01T08:33:53;19.41;;;16.61;;
63953;SDS011;50128;52.094;5.232;2023-03-01T08:35:33;18.0;;;16.11;;
63953;SDS011;50128;52.094;5.232;2023-03-01T08:38:45;18.91;;;16.11;;
63953;SDS011;50128;52.094;5.232;2023-03-01T08:40:21;17.8;;;15.0;;
63953;SDS011;50128;52.094;5.232;2023-03-01T08:45:10;16.11;;;13.7;;
63953;SDS011;50128;52.094;5.232;2023-03-01T08:46:47;17.3;;;13.9;;
63953;SDS011;50128;52.094;5.232;2023-03-01T08:48:23;13.8;;;12.3;;
63953;SDS011;50128;52.094;5.232;2023-03-01T08:51:38;13.6;;;11.7;;
63953;SDS011;50128;52.094;5.232;2023-03-01T08:53:15;14.4;;;11.8;;
63953;SDS011;50128;52.094;5.232;2023-03-01T08:54:51;13.6;;;11.2;;
63953;SDS011;50128;52.094;5.232;2023-03-01T08:56:27;13.1;;;11.6;;
63953;SDS011;50128;52.094;5.232;2023-03-01T08:59:39;12.9;;;10.9;;
63953;SDS011;50128;52.094;5.232;2023-03-01T09:01:16;13.2;;;10.7;;
63953;SDS011;50128;52.094;5.232;2023-03-01T09:02:54;11.7;;;9.81;;
63953;SDS011;50128;52.094;5.232;2023-03-01T09:06:07;12.7;;;9.81;;
63953;SDS011;50128;52.094;5.232;2023-03-01T09:07:44;11.0;;;9.0;;
63953;SDS011;50128;52.094;5.232;2023-03-01T09:09:20;12.8;;;9.4;;
63953;SDS011;50128;52.094;5.232;2023-03-01T09:12:32;9.9;;;8.9;;
63953;SDS011;50128;52.094;5.232;2023-03-01T09:14:09;11.1;;;8.71;;
63953;SDS011;50128;52.094;5.232;2023-03-01T09:15:45;14.5;;;8.9;;
63953;SDS011;50128;52.094;5.232;2023-03-01T09:17:21;14.9;;;9.21;;
63953;SDS011;50128;52.094;5.232;2023-03-01T09:20:33;9.21;;;7.3;;
63953;SDS011;50128;52.094;5.232;2023-03-01T09:22:09;9.0;;;7.1;;
63953;SDS011;50128;52.094;5.232;2023-03-01T09:23:46;9.21;;;6.9;;
63953;SDS011;50128;52.094;5.232;2023-03-01T09:27:00;10.5;;;7.2;;
63953;SDS011;50128;52.094;5.232;2023-03-01T09:28:36;12.5;;;8.6;;
63953;SDS011;50128;52.094;5.232;2023-03-01T09:30:13;10.8;;;8.1;;
63953;SDS011;50128;52.094;5.232;2023-03-01T09:33:26;9.6;;;6.7;;
63953;SDS011;50128;52.094;5.232;2023-03-01T09:35:03;8.31;;;5.6;;
63953;SDS011;50128;52.094;5.232;2023-03-01T09:36:40;7.0;;;4.91;;
63953;SDS011;50128;52.094;5.232;2023-03-01T09:38:16;7.4;;;4.91;;
63953;SDS011;50128;52.094;5.232;2023-03-01T09:41:36;7.3;;;4.1;;
63953;SDS011;50128;52.094;5.232;2023-03-01T09:43:44;7.1;;;4.41;;
63953;SDS011;50128;52.094;5.232;2023-03-01T09:45:26;7.8;;;5.11;;
63953;SDS011;50128;52.094;5.232;2023-03-01T09:47:09;6.7;;;4.41;;
63953;SDS011;50128;52.094;5.232;2023-03-01T09:48:55;6.7;;;4.7;;
63953;SDS011;50128;52.094;5.232;2023-03-01T09:52:19;7.2;;;4.5;;
63953;SDS011;50128;52.094;5.232;2023-03-01T09:54:05;6.8;;;4.5;;
63953;SDS011;50128;52.094;5.232;2023-03-01T09:55:43;6.9;;;3.9;;
63953;SDS011;50128;52.094;5.232;2023-03-01T09:57:25;9.9;;;4.5;;
63953;SDS011;50128;52.094;5.232;2023-03-01T10:00:59;8.2;;;4.41;;
63953;SDS011;50128;52.094;5.232;2023-03-01T10:02:47;6.2;;;4.2;;
63953;SDS011;50128;52.094;5.232;2023-03-01T10:04:28;7.5;;;4.3;;
63953;SDS011;50128;52.094;5.232;2023-03-01T10:06:19;5.6;;;3.6;;
63953;SDS011;50128;52.094;5.232;2023-03-01T10:08:00;6.9;;;4.1;;
63953;SDS011;50128;52.094;5.232;2023-03-01T10:10:01;6.4;;;4.1;;
63953;SDS011;50128;52.094;5.232;2023-03-01T10:11:41;7.7;;;4.41;;
63953;SDS011;50128;52.094;5.232;2023-03-01T10:15:06;8.9;;;5.6;;
63953;SDS011;50128;52.094;5.232;2023-03-01T10:16:48;7.3;;;4.61;;
63953;SDS011;50128;52.094;5.232;2023-03-01T10:18:29;5.5;;;4.0;;
63953;SDS011;50128;52.094;5.232;2023-03-01T10:20:14;6.3;;;4.1;;
63953;SDS011;50128;52.094;5.232;2023-03-01T10:23:45;8.9;;;6.0;;
63953;SDS011;50128;52.094;5.232;2023-03-01T10:25:31;9.21;;;5.3;;
63953;SDS011;50128;52.094;5.232;2023-03-01T10:27:22;7.2;;;4.41;;
63953;SDS011;50128;52.094;5.232;2023-03-01T10:29:02;7.9;;;4.41;;
63953;SDS011;50128;52.094;5.232;2023-03-01T10:30:40;7.7;;;4.3;;
63953;SDS011;50128;52.094;5.232;2023-03-01T10:33:54;7.0;;;4.2;;
63953;SDS011;50128;52.094;5.232;2023-03-01T10:35:32;7.6;;;4.7;;
63953;SDS011;50128;52.094;5.232;2023-03-01T10:37:10;6.6;;;4.2;;
63953;SDS011;50128;52.094;5.232;2023-03-01T10:40:27;7.8;;;4.5;;
63953;SDS011;50128;52.094;5.232;2023-03-01T10:42:04;8.1;;;4.7;;
63953;SDS011;50128;52.094;5.232;2023-03-01T10:43:54;6.9;;;4.61;;
63953;SDS011;50128;52.094;5.232;2023-03-01T10:45:33;6.6;;;3.9;;
63953;SDS011;50128;52.094;5.232;2023-03-01T10:49:25;5.9;;;4.0;;
63953;SDS011;50128;52.094;5.232;2023-03-01T10:51:05;6.3;;;3.7;;
63953;SDS011;50128;52.094;5.232;2023-03-01T10:52:42;5.2;;;3.3;;
63953;SDS011;50128;52.094;5.232;2023-03-01T10:54:33;5.8;;;3.3;;
63953;SDS011;50128;52.094;5.232;2023-03-01T10:56:10;5.4;;;3.4;;
63953;SDS011;50128;52.094;5.232;2023-03-01T10:57:48;6.2;;;3.5;;
63953;SDS011;50128;52.094;5.232;2023-03-01T11:01:24;6.2;;;3.5;;
63953;SDS011;50128;52.094;5.232;2023-03-01T11:03:08;5.8;;;3.8;;
63953;SDS011;50128;52.094;5.232;2023-03-01T11:04:56;5.9;;;3.5;;
63953;SDS011;50128;52.094;5.232;2023-03-01T11:06:58;5.7;;;3.8;;
63953;SDS011;50128;52.094;5.232;2023-03-01T11:08:37;6.5;;;3.6;;
63953;SDS011;50128;52.094;5.232;2023-03-01T11:10:17;5.11;;;3.4;;
63953;SDS011;50128;52.094;5.232;2023-03-01T11:13:36;4.7;;;3.7;;
63953;SDS011;50128;52.094;5.232;2023-03-01T11:15:24;6.7;;;3.7;;
63953;SDS011;50128;52.094;5.232;2023-03-01T11:17:04;6.4;;;4.1;;
63953;SDS011;50128;52.094;5.232;2023-03-01T11:18:55;5.6;;;3.6;;
63953;SDS011;50128;52.094;5.232;2023-03-01T11:22:12;5.4;;;3.8;;
63953;SDS011;50128;52.094;5.232;2023-03-01T11:23:53;6.2;;;4.0;;
63953;SDS011;50128;52.094;5.232;2023-03-01T11:25:30;6.4;;;4.0;;
63953;SDS011;50128;52.094;5.232;2023-03-01T11:27:16;5.7;;;4.3;;
63953;SDS011;50128;52.094;5.232;2023-03-01T11:30:43;5.8;;;3.6;;
63953;SDS011;50128;52.094;5.232;2023-03-01T11:32:27;5.3;;;3.4;;
63953;SDS011;50128;52.094;5.232;2023-03-01T11:34:24;5.0;;;3.5;;
63953;SDS011;50128;52.094;5.232;2023-03-01T11:36:26;5.11;;;3.7;;
63953;SDS011;50128;52.094;5.232;2023-03-01T11:38:12;6.3;;;3.8;;
63953;SDS011;50128;52.094;5.232;2023-03-01T11:39:58;5.8;;;3.4;;
63953;SDS011;50128;52.094;5.232;2023-03-01T11:41:42;5.9;;;3.5;;
63953;SDS011;50128;52.094;5.232;2023-03-01T11:45:10;5.2;;;3.2;;
63953;SDS011;50128;52.094;5.232;2023-03-01T11:46:52;4.7;;;3.0;;
63953;SDS011;50128;52.094;5.232;2023-03-01T11:49:16;5.6;;;2.8;;
63953;SDS011;50128;52.094;5.232;2023-03-01T11:52:17;5.11;;;3.1;;
63953;SDS011;50128;52.094;5.232;2023-03-01T11:56:03;5.8;;;3.1;;
63953;SDS011;50128;52.094;5.232;2023-03-01T11:57:59;4.8;;;2.9;;
63953;SDS011;50128;52.094;5.232;2023-03-01T11:59:59;7.2;;;2.9;;
63953;SDS011;50128;52.094;5.232;2023-03-01T12:05:02;5.5;;;3.0;;
63953;SDS011;50128;52.094;5.232;2023-03-01T12:07:56;4.91;;;3.0;;
63953;SDS011;50128;52.094;5.232;2023-03-01T12:09:47;4.91;;;2.6;;
63953;SDS011;50128;52.094;5.232;2023-03-01T12:11:39;5.11;;;3.3;;
63953;SDS011;50128;52.094;5.232;2023-03-01T12:13:41;5.4;;;3.2;;
63953;SDS011;50128;52.094;5.232;2023-03-01T12:17:53;4.61;;;3.0;;
63953;SDS011;50128;52.094;5.232;2023-03-01T12:19:55;4.5;;;2.8;;
63953;SDS011;50128;52.094;5.232;2023-03-01T12:21:53;4.61;;;3.0;;
63953;SDS011;50128;52.094;5.232;2023-03-01T12:24:10;5.7;;;3.1;;
63953;SDS011;50128;52.094;5.232;2023-03-01T12:26:57;5.4;;;2.8;;
63953;SDS011;50128;52.094;5.232;2023-03-01T12:28:53;4.8;;;2.9;;
63953;SDS011;50128;52.094;5.232;2023-03-01T12:31:04;5.6;;;3.2;;
63953;SDS011;50128;52.094;5.232;2023-03-01T12:33:49;5.3;;;3.3;;
63953;SDS011;50128;52.094;5.232;2023-03-01T12:35:36;5.9;;;3.3;;
63953;SDS011;50128;52.094;5.232;2023-03-01T12:37:29;6.1;;;3.4;;
63953;SDS011;50128;52.094;5.232;2023-03-01T12:39:24;5.0;;;3.3;;
63953;SDS011;50128;52.094;5.232;2023-03-01T12:41:21;5.3;;;3.2;;
63953;SDS011;50128;52.094;5.232;2023-03-01T12:43:48;5.9;;;3.4;;
63953;SDS011;50128;52.094;5.232;2023-03-01T12:45:43;5.8;;;3.6;;
63953;SDS011;50128;52.094;5.232;2023-03-01T12:47:35;6.5;;;3.9;;
63953;SDS011;50128;52.094;5.232;2023-03-01T12:49:32;6.6;;;3.9;;
63953;SDS011;50128;52.094;5.232;2023-03-01T12:51:15;5.2;;;3.3;;
63953;SDS011;50128;52.094;5.232;2023-03-01T12:52:57;5.4;;;3.7;;